Finikia — YKRO — position and weather

sailwx.info

Track history (hours):
 
Tides and Currents Weather Stations Pressure Air Temp Water Temp Dewpoint Dewpoint Depression Visibility Wind Speed Wind Dir Waves Ship Positions

Finikia

Last reported at 2016-Dec-14 03:12 UTC. Time now 2017-Jan-20 05:50 UTC.
Position N 46°21' E 030°55'.
Warning: this ship's position is 37 days out of date.

Length 138 m; draft 8 m.

Type: Cargo ship. MMSI: 468395000.

Date/timePositionNaut miles runAvg speedWind from/ knotsBaromVisibWave heightAir tempDewpointWater temp
2016-Dec-14 03:12N 46°21' E 030°55'710.6
2016-Dec-14 02:33N 46°28' E 030°55'34 8.0
2016-Dec-13 22:19N 46°36' E 031°43'7 9.1
2016-Dec-13 21:34N 46°37' E 031°53'13 4.2
2016-Dec-13 18:24N 46°50' E 031°56'0 0.0
2016-Dec-13 17:16N 46°50' E 031°56'1 1.1
2016-Dec-13 16:32N 46°50' E 031°57'0 0.0
2016-Dec-13 13:21N 46°50' E 031°57'0 0.0
2016-Dec-13 05:33N 46°50' E 031°57'0 0.0
2016-Dec-13 04:33N 46°50' E 031°57'0 0.0
2016-Dec-13 01:21N 46°50' E 031°57'0 0.0
2016-Dec-13 00:15N 46°50' E 031°57'0 0.0
2016-Dec-12 22:30N 46°50' E 031°57'0 0.0
2016-Dec-12 19:33N 46°50' E 031°57'0 0.0
2016-Dec-12 15:21N 46°50' E 031°57'0 0.0
2016-Dec-12 13:21N 46°50' E 031°57'0 0.0
2016-Dec-12 11:09N 46°50' E 031°57'0 0.0
2016-Dec-12 10:09N 46°50' E 031°57'0 0.0
2016-Dec-12 08:27N 46°50' E 031°57'0 0.0
2016-Dec-12 06:12N 46°50' E 031°57'0 0.0
2016-Dec-12 05:30N 46°50' E 031°57'0 0.0
2016-Dec-12 04:24N 46°50' E 031°57'0 0.0
2016-Dec-12 03:33N 46°50' E 031°57'0 0.0
2016-Dec-12 02:33N 46°50' E 031°57'0 0.0
2016-Dec-12 01:27N 46°50' E 031°57'0 0.0
2016-Dec-12 00:24N 46°50' E 031°57'0 0.0
2016-Dec-11 23:15N 46°50' E 031°57'0 0.0
2016-Dec-11 22:24N 46°50' E 031°57'0 0.0
2016-Dec-11 21:06N 46°50' E 031°57'0 0.0
2016-Dec-11 16:15N 46°50' E 031°57'0 0.0
2016-Dec-11 03:21N 46°50' E 031°57'0 0.0
2016-Dec-11 01:18N 46°50' E 031°57'0 0.0
2016-Dec-10 16:15N 46°50' E 031°57'0 0.0
2016-Dec-10 15:21N 46°50' E 031°57'0 0.0
2016-Dec-10 11:24N 46°50' E 031°57'0 0.0
2016-Dec-10 10:30N 46°50' E 031°57'0 0.0
2016-Dec-10 09:24N 46°50' E 031°57'0 0.0
2016-Dec-10 07:30N 46°50' E 031°57'0 0.0
2016-Dec-10 06:30N 46°50' E 031°57'0 0.0
2016-Dec-10 02:27N 46°50' E 031°57'0 0.0
2016-Dec-10 01:30N 46°50' E 031°57'0 0.0
2016-Dec-10 00:33N 46°50' E 031°57'0 0.0
2016-Dec-09 23:27N 46°50' E 031°57'0 0.0
2016-Dec-09 20:33N 46°50' E 031°57'0 0.0
2016-Dec-09 18:33N 46°50' E 031°57'0 0.0
2016-Dec-09 17:27N 46°50' E 031°57'0 0.0
2016-Dec-09 16:33N 46°50' E 031°57'0 0.0
2016-Dec-09 14:18N 46°50' E 031°57'0 0.0
2016-Dec-09 13:24N 46°50' E 031°57'0 0.0
2016-Dec-09 12:30N 46°50' E 031°57'0 0.0
2016-Dec-09 11:24N 46°50' E 031°57'0 0.0
2016-Dec-09 10:12N 46°50' E 031°57'0 0.0
2016-Dec-09 01:27N 46°50' E 031°57'0 0.0
2016-Dec-08 23:33N 46°50' E 031°57'0 0.0
2016-Dec-08 22:09N 46°50' E 031°57'0 0.0
2016-Dec-08 21:33N 46°50' E 031°57'0 0.0
2016-Dec-08 20:15N 46°50' E 031°57'0 0.0
2016-Dec-08 05:34N 46°50' E 031°57'2 2.1
2016-Dec-08 04:32N 46°49' E 031°55'7 7.0
2016-Dec-08 03:33N 46°42' E 031°56'9 9.3
2016-Dec-08 02:33N 46°36' E 031°47'3410.3
2016-Dec-07 23:14N 46°33' E 030°57'7 9.9
2016-Dec-07 22:32N 46°26' E 030°57'  
2016-Dec-04 13:09N 37°29' E 025°54'  
Track history (hours):
 
Tides and Currents Weather Stations Pressure Air Temp Water Temp Dewpoint Dewpoint Depression Visibility Wind Speed Wind Dir Waves Ship Positions

Finikia

Last reported at 2016-Dec-14 03:12 UTC. Time now 2017-Jan-20 05:50 UTC.
Position N 46°21' E 030°55'.
Warning: this ship's position is 37 days out of date.

Length 138 m; draft 8 m.

Type: Cargo ship. MMSI: 468395000.

Date/timePositionNaut miles runAvg speedWind from/ knotsBaromVisibWave heightAir tempDewpointWater temp
2016-Dec-14 03:12N 46°21' E 030°55'710.6
2016-Dec-14 02:33N 46°28' E 030°55'34 8.0
2016-Dec-13 22:19N 46°36' E 031°43'7 9.1
2016-Dec-13 21:34N 46°37' E 031°53'13 4.2
2016-Dec-13 18:24N 46°50' E 031°56'0 0.0
2016-Dec-13 17:16N 46°50' E 031°56'1 1.1
2016-Dec-13 16:32N 46°50' E 031°57'0 0.0
2016-Dec-13 13:21N 46°50' E 031°57'0 0.0
2016-Dec-13 05:33N 46°50' E 031°57'0 0.0
2016-Dec-13 04:33N 46°50' E 031°57'0 0.0
2016-Dec-13 01:21N 46°50' E 031°57'0 0.0
2016-Dec-13 00:15N 46°50' E 031°57'0 0.0
2016-Dec-12 22:30N 46°50' E 031°57'0 0.0
2016-Dec-12 19:33N 46°50' E 031°57'0 0.0
2016-Dec-12 15:21N 46°50' E 031°57'0 0.0
2016-Dec-12 13:21N 46°50' E 031°57'0 0.0
2016-Dec-12 11:09N 46°50' E 031°57'0 0.0
2016-Dec-12 10:09N 46°50' E 031°57'0 0.0
2016-Dec-12 08:27N 46°50' E 031°57'0 0.0
2016-Dec-12 06:12N 46°50' E 031°57'0 0.0
2016-Dec-12 05:30N 46°50' E 031°57'0 0.0
2016-Dec-12 04:24N 46°50' E 031°57'0 0.0
2016-Dec-12 03:33N 46°50' E 031°57'0 0.0
2016-Dec-12 02:33N 46°50' E 031°57'0 0.0
2016-Dec-12 01:27N 46°50' E 031°57'0 0.0
2016-Dec-12 00:24N 46°50' E 031°57'0 0.0
2016-Dec-11 23:15N 46°50' E 031°57'0 0.0
2016-Dec-11 22:24N 46°50' E 031°57'0 0.0
2016-Dec-11 21:06N 46°50' E 031°57'0 0.0
2016-Dec-11 16:15N 46°50' E 031°57'0 0.0
2016-Dec-11 03:21N 46°50' E 031°57'0 0.0
2016-Dec-11 01:18N 46°50' E 031°57'0 0.0
2016-Dec-10 16:15N 46°50' E 031°57'0 0.0
2016-Dec-10 15:21N 46°50' E 031°57'0 0.0
2016-Dec-10 11:24N 46°50' E 031°57'0 0.0
2016-Dec-10 10:30N 46°50' E 031°57'0 0.0
2016-Dec-10 09:24N 46°50' E 031°57'0 0.0
2016-Dec-10 07:30N 46°50' E 031°57'0 0.0
2016-Dec-10 06:30N 46°50' E 031°57'0 0.0
2016-Dec-10 02:27N 46°50' E 031°57'0 0.0
2016-Dec-10 01:30N 46°50' E 031°57'0 0.0
2016-Dec-10 00:33N 46°50' E 031°57'0 0.0
2016-Dec-09 23:27N 46°50' E 031°57'0 0.0
2016-Dec-09 20:33N 46°50' E 031°57'0 0.0
2016-Dec-09 18:33N 46°50' E 031°57'0 0.0
2016-Dec-09 17:27N 46°50' E 031°57'0 0.0
2016-Dec-09 16:33N 46°50' E 031°57'0 0.0
2016-Dec-09 14:18N 46°50' E 031°57'0 0.0
2016-Dec-09 13:24N 46°50' E 031°57'0 0.0
2016-Dec-09 12:30N 46°50' E 031°57'0 0.0
2016-Dec-09 11:24N 46°50' E 031°57'0 0.0
2016-Dec-09 10:12N 46°50' E 031°57'0 0.0
2016-Dec-09 01:27N 46°50' E 031°57'0 0.0
2016-Dec-08 23:33N 46°50' E 031°57'0 0.0
2016-Dec-08 22:09N 46°50' E 031°57'0 0.0
2016-Dec-08 21:33N 46°50' E 031°57'0 0.0
2016-Dec-08 20:15N 46°50' E 031°57'0 0.0
2016-Dec-08 05:34N 46°50' E 031°57'2 2.1
2016-Dec-08 04:32N 46°49' E 031°55'7 7.0
2016-Dec-08 03:33N 46°42' E 031°56'9 9.3
2016-Dec-08 02:33N 46°36' E 031°47'3410.3
2016-Dec-07 23:14N 46°33' E 030°57'7 9.9
2016-Dec-07 22:32N 46°26' E 030°57'  
2016-Dec-04 13:09N 37°29' E 025°54'  

Dump ship's entire track history